Terminal Aerodrome Forecast
Issued by NWS Charleston, WV

Current Version | Previous Version | Text Only | Print | Product List | Glossary Off
Versions: 1 2 3 4 5 6 7 8 9 10 11 12 13 14 15 16 17 18 19 20 21 22 23

000
FTUS41 KRLX 301100
TAFBKW
TAF
KBKW 301122Z 3012/3112 00000KT 5SM BR FEW020
     FM301300 VRB03KT 6SM BR HZ FEW025
     FM301500 VRB03KT P6SM SCT035
     FM301800 30006KT P6SM BKN060
     FM310400 00000KT P6SM SCT060=

USA.gov is the U.S. government's official web portal to all federal, state and local government web resources and services.